Time;durP1;ratioP1;P1;durP2;ratioP2;P2;SDS_P1;SDS_P2;PMS_P1;PMS_P2;Temp;Humidity;BMP_temperature;BMP_pressure;BME280_temperature;BME280_humidity;BME280_pressure;Samples;Min_cycle;Max_cycle;Signal;HPM_P1;HPM_P2
2022/07/24 00:01:20;;;;;;;11.68;4.40;;;;;;;25.17;46.32;94622.16;5016123;28;20026;-87
2022/07/24 00:03:46;;;;;;;17.63;4.50;;;;;;;25.15;45.75;94624.44;5015975;28;20029;-86
2022/07/24 00:06:11;;;;;;;15.38;4.50;;;;;;;24.92;46.85;94627.81;5016053;28;20026;-86
2022/07/24 00:08:40;;;;;;;14.10;3.97;;;;;;;25.18;45.08;94623.72;4999672;28;20037;-86
2022/07/24 00:11:05;;;;;;;15.68;4.10;;;;;;;25.14;45.60;94628.25;5000039;28;20028;-86
2022/07/24 00:13:31;;;;;;;12.48;3.97;;;;;;;25.21;44.86;94628.34;4999619;28;20026;-86
2022/07/24 00:15:57;;;;;;;9.43;4.07;;;;;;;25.04;45.52;94623.44;5015886;28;20385;-86
2022/07/24 00:18:22;;;;;;;16.90;4.35;;;;;;;25.07;44.93;94620.84;5015730;28;20462;-86
2022/07/24 00:20:47;;;;;;;9.73;4.13;;;;;;;25.05;45.66;94627.69;5015693;28;20443;-86
2022/07/24 00:23:13;;;;;;;11.05;4.10;;;;;;;24.59;47.61;94628.25;5016768;28;20030;-86
2022/07/24 00:25:38;;;;;;;7.80;4.43;;;;;;;24.16;49.59;94626.22;5015724;28;20026;-86
2022/07/24 00:28:04;;;;;;;13.20;4.20;;;;;;;23.84;50.81;94627.00;5015643;28;20033;-86
2022/07/24 00:30:29;;;;;;;20.55;4.40;;;;;;;23.71;51.68;94631.66;4999761;28;20171;-87
2022/07/24 00:32:55;;;;;;;18.40;4.70;;;;;;;23.44;53.42;94636.72;5015733;28;20065;-87
2022/07/24 00:35:21;;;;;;;12.20;4.45;;;;;;;23.33;54.06;94632.22;4999669;28;20029;-87
2022/07/24 00:37:46;;;;;;;20.80;5.43;;;;;;;23.00;56.14;94637.47;4999383;28;20031;-87
2022/07/24 00:40:13;;;;;;;18.92;5.25;;;;;;;23.01;56.16;94641.72;5015781;28;20030;-87
2022/07/24 00:42:38;;;;;;;8.27;4.18;;;;;;;22.78;57.49;94633.44;4999568;28;20395;-86
2022/07/24 00:45:04;;;;;;;11.82;4.75;;;;;;;22.71;59.06;94644.69;4999319;28;20113;-87
2022/07/24 00:47:29;;;;;;;13.73;4.65;;;;;;;22.77;58.74;94639.13;5015748;28;20033;-86
2022/07/24 00:49:55;;;;;;;13.35;4.93;;;;;;;22.61;60.83;94629.16;4999575;28;20359;-86
2022/07/24 00:52:20;;;;;;;17.98;4.78;;;;;;;22.69;59.75;94636.25;5015419;28;20104;-87
2022/07/24 00:54:46;;;;;;;18.77;4.90;;;;;;;22.75;60.52;94634.13;4999452;28;20026;-86
2022/07/24 00:57:11;;;;;;;13.07;4.43;;;;;;;22.89;59.27;94639.06;5016514;28;20076;-87
2022/07/24 00:59:37;;;;;;;13.75;4.88;;;;;;;22.86;58.86;94640.53;4999398;28;20040;-87
2022/07/24 01:02:02;;;;;;;10.98;4.18;;;;;;;23.18;56.65;94639.09;4999413;28;20025;-86
2022/07/24 01:04:28;;;;;;;12.43;4.20;;;;;;;23.04;55.35;94632.25;4999038;28;20037;-86
2022/07/24 01:06:53;;;;;;;9.38;3.88;;;;;;;23.02;55.04;94634.44;5015507;28;20065;-87
2022/07/24 01:09:19;;;;;;;22.77;5.32;;;;;;;22.94;55.23;94636.16;5019245;28;20033;-87
2022/07/24 01:11:44;;;;;;;12.00;5.00;;;;;;;23.04;54.73;94645.59;5019255;28;20096;-86
2022/07/24 01:14:11;;;;;;;12.65;4.43;;;;;;;23.02;55.54;94642.47;5018822;28;20069;-87
2022/07/24 01:16:36;;;;;;;10.18;4.53;;;;;;;23.01;54.95;94644.38;5019419;28;20030;-87
2022/07/24 01:19:03;;;;;;;9.55;3.85;;;;;;;23.09;54.80;94641.88;5002831;28;20087;-86
2022/07/24 01:21:36;;;;;;;17.80;4.38;;;;;;;23.14;54.53;94641.66;5002623;28;20510;-87
2022/07/24 01:24:01;;;;;;;13.63;4.50;;;;;;;23.13;54.06;94643.53;5018872;28;20033;-86
2022/07/24 01:26:27;;;;;;;16.30;4.10;;;;;;;22.99;56.29;94638.59;5002604;28;20034;-86
2022/07/24 01:28:53;;;;;;;11.65;3.80;;;;;;;23.26;54.20;94638.13;5018640;28;20076;-86
2022/07/24 01:31:18;;;;;;;14.93;4.50;;;;;;;23.03;54.91;94641.38;5002406;28;20068;-86
2022/07/24 01:33:44;;;;;;;10.93;4.15;;;;;;;23.13;54.51;94640.09;5002064;28;20037;-86
2022/07/24 01:36:09;;;;;;;10.55;3.97;;;;;;;22.97;55.15;94645.38;5018475;28;20037;-86
2022/07/24 01:38:35;;;;;;;11.45;4.50;;;;;;;22.73;56.46;94641.66;5018479;28;20056;-85
2022/07/24 01:41:00;;;;;;;12.70;4.50;;;;;;;22.84;55.53;94639.31;5018222;28;20030;-86
2022/07/24 01:43:26;;;;;;;15.55;4.38;;;;;;;22.76;56.10;94645.56;5020792;28;20040;-86
2022/07/24 01:45:57;;;;;;;18.45;4.43;;;;;;;22.68;56.74;94637.38;5030800;28;20339;-86
2022/07/24 01:48:23;;;;;;;12.55;3.85;;;;;;;22.77;57.30;94637.22;5014024;28;20053;-86
2022/07/24 01:50:48;;;;;;;15.35;5.05;;;;;;;22.64;59.00;94633.81;5026598;28;20477;-85
2022/07/24 01:53:14;;;;;;;16.67;5.18;;;;;;;22.46;59.36;94625.28;5030033;28;20030;-86
2022/07/24 01:55:39;;;;;;;18.05;4.78;;;;;;;22.34;57.84;94619.94;5018108;28;20026;-86
2022/07/24 01:58:05;;;;;;;10.20;3.92;;;;;;;22.38;58.78;94620.81;5017937;28;20419;-86
2022/07/24 02:00:30;;;;;;;9.88;4.03;;;;;;;22.52;57.93;94620.47;5001854;28;20397;-86
2022/07/24 02:02:56;;;;;;;18.38;4.40;;;;;;;22.43;58.93;94623.25;5001673;28;20064;-86
2022/07/24 02:05:21;;;;;;;15.57;4.25;;;;;;;22.46;58.51;94617.25;5018118;28;20033;-86
2022/07/24 02:07:55;;;;;;;11.20;4.78;;;;;;;22.30;59.83;94617.16;5017916;28;20439;-86
2022/07/24 02:10:20;;;;;;;10.50;4.03;;;;;;;22.38;59.66;94624.28;5017911;28;20025;-86
2022/07/24 02:12:46;;;;;;;11.75;4.10;;;;;;;22.40;58.51;94623.94;5018873;28;20032;-86
2022/07/24 02:15:11;;;;;;;14.82;4.55;;;;;;;22.44;59.13;94627.47;5017736;28;20029;-86
2022/07/24 02:17:37;;;;;;;15.10;4.63;;;;;;;22.46;57.46;94619.94;5017281;28;20033;-86
2022/07/24 02:20:03;;;;;;;15.52;4.15;;;;;;;22.60;56.40;94622.25;5016308;28;20036;-86
2022/07/24 02:22:29;;;;;;;13.75;4.60;;;;;;;22.63;56.45;94632.25;5017485;28;20057;-86
2022/07/24 02:24:54;;;;;;;10.23;4.60;;;;;;;22.41;56.87;94625.47;5018504;28;20040;-86
2022/07/24 02:27:22;;;;;;;11.23;4.20;;;;;;;22.42;56.87;94617.16;5018694;28;20316;-85
2022/07/24 02:29:47;;;;;;;11.18;4.20;;;;;;;22.33;56.58;94624.50;5018711;28;20053;-86
2022/07/24 02:32:13;;;;;;;12.25;4.65;;;;;;;22.50;56.41;94625.38;5017412;28;20060;-86
2022/07/24 02:34:40;;;;;;;10.82;4.22;;;;;;;22.47;57.64;94626.81;5017312;28;20029;-86
2022/07/24 02:37:06;;;;;;;10.45;4.50;;;;;;;22.46;56.88;94627.94;5018544;28;20075;-86
2022/07/24 02:39:31;;;;;;;16.52;4.55;;;;;;;22.56;57.42;94626.72;5001134;28;20038;-85
2022/07/24 02:41:57;;;;;;;14.57;4.80;;;;;;;22.50;57.21;94630.72;5017472;28;20029;-85
2022/07/24 02:44:22;;;;;;;9.25;4.07;;;;;;;22.45;57.71;94631.69;5018298;28;20025;-86
2022/07/24 02:46:48;;;;;;;10.80;4.18;;;;;;;22.37;58.81;94630.72;5017391;28;20037;-86
2022/07/24 02:49:13;;;;;;;11.43;4.20;;;;;;;22.34;58.93;94636.72;5017221;28;20342;-85
2022/07/24 02:51:38;;;;;;;10.30;4.45;;;;;;;22.30;59.26;94635.84;5001008;28;20030;-85
2022/07/24 02:54:04;;;;;;;13.63;4.45;;;;;;;22.30;60.22;94635.84;5016942;28;20026;-85
2022/07/24 02:56:29;;;;;;;12.02;4.55;;;;;;;22.24;60.20;94632.63;5017007;28;20104;-86
2022/07/24 02:58:55;;;;;;;9.80;3.95;;;;;;;22.28;59.88;94633.50;5017975;28;20026;-85
2022/07/24 03:01:20;;;;;;;15.52;4.95;;;;;;;22.20;60.63;94639.75;5016956;28;20032;-86
2022/07/24 03:03:49;;;;;;;12.23;4.40;;;;;;;22.07;61.16;94633.63;5016788;28;20320;-86
2022/07/24 03:06:19;;;;;;;13.88;4.50;;;;;;;22.17;60.08;94632.44;5016841;28;20036;-86
2022/07/24 03:08:45;;;;;;;11.35;4.55;;;;;;;22.16;61.18;94644.97;5016791;28;20072;-86
2022/07/24 03:11:10;;;;;;;13.98;4.13;;;;;;;22.20;61.14;94630.97;5016756;28;20061;-86
2022/07/24 03:13:35;;;;;;;9.05;4.28;;;;;;;22.23;60.72;94631.06;5000679;28;20029;-86
2022/07/24 03:16:01;;;;;;;12.32;4.50;;;;;;;22.16;60.92;94639.63;5016658;28;20058;-86
2022/07/24 03:18:26;;;;;;;8.90;4.30;;;;;;;22.20;59.95;94631.75;5016770;28;20117;-86
2022/07/24 03:20:52;;;;;;;14.02;4.88;;;;;;;22.14;60.79;94630.41;5000072;28;20033;-86
2022/07/24 03:23:17;;;;;;;13.95;4.85;;;;;;;22.12;61.04;94641.44;5016572;28;20498;-86
2022/07/24 03:25:43;;;;;;;13.90;4.18;;;;;;;22.06;61.82;94650.75;5016345;28;20026;-86
2022/07/24 03:28:08;;;;;;;17.27;4.32;;;;;;;22.05;61.84;94651.88;5016455;28;20390;-86
2022/07/24 03:30:34;;;;;;;16.23;4.43;;;;;;;22.01;62.10;94649.09;4999598;28;20443;-86
2022/07/24 03:32:59;;;;;;;11.10;4.32;;;;;;;21.99;61.82;94647.88;5017415;28;20030;-86
2022/07/24 03:35:25;;;;;;;10.80;4.03;;;;;;;22.07;61.91;94654.22;5017538;28;20108;-86
2022/07/24 03:37:50;;;;;;;11.90;4.25;;;;;;;22.06;62.42;94642.75;5016233;28;20053;-85
2022/07/24 03:40:16;;;;;;;11.85;4.13;;;;;;;22.10;61.88;94642.88;5016086;28;20072;-86
2022/07/24 03:42:41;;;;;;;12.35;4.70;;;;;;;21.97;63.24;94642.09;5016047;28;20029;-86
2022/07/24 03:45:07;;;;;;;14.32;4.63;;;;;;;22.09;61.94;94650.06;5016378;28;20070;-86
2022/07/24 03:47:33;;;;;;;19.48;4.15;;;;;;;22.15;63.07;94650.63;5024134;28;20040;-85
2022/07/24 03:49:58;;;;;;;15.85;4.80;;;;;;;22.18;64.83;94652.66;5035812;28;20079;-85
2022/07/24 03:52:24;;;;;;;11.13;4.68;;;;;;;22.11;66.69;94650.56;5019561;28;20354;-85
2022/07/24 03:54:50;;;;;;;15.93;4.90;;;;;;;22.17;65.04;94654.53;5035590;28;20513;-85
2022/07/24 03:57:16;;;;;;;13.98;3.90;;;;;;;22.21;64.62;94659.19;5035675;28;20029;-85
2022/07/24 03:59:41;;;;;;;17.23;5.10;;;;;;;22.18;66.63;94660.66;5036784;28;20033;-87
2022/07/24 04:02:07;;;;;;;9.20;3.95;;;;;;;22.29;65.64;94653.75;5036233;28;20099;-87
2022/07/24 04:04:32;;;;;;;12.13;4.63;;;;;;;21.83;68.23;94661.88;5035664;28;20036;-87
2022/07/24 04:06:57;;;;;;;12.45;4.60;;;;;;;21.87;68.09;94667.31;5019306;28;20029;-87
2022/07/24 04:09:23;;;;;;;15.10;4.70;;;;;;;21.85;68.81;94664.97;5019605;28;20021;-87
2022/07/24 04:11:48;;;;;;;12.90;4.40;;;;;;;21.78;68.09;94669.31;5018945;28;20124;-87
2022/07/24 04:14:14;;;;;;;12.20;4.60;;;;;;;21.87;66.94;94669.97;5035626;28;20437;-88
2022/07/24 04:16:39;;;;;;;10.05;4.85;;;;;;;21.93;67.75;94668.66;5035356;28;20056;-87
2022/07/24 04:19:05;;;;;;;10.93;4.57;;;;;;;21.91;67.72;94673.53;5019452;28;20048;-88
2022/07/24 04:21:30;;;;;;;12.77;4.40;;;;;;;21.84;69.76;94667.97;5035981;28;20057;-87
2022/07/24 04:23:56;;;;;;;12.32;4.88;;;;;;;21.87;69.27;94677.97;5036654;28;20083;-87
2022/07/24 04:26:22;;;;;;;17.48;4.30;;;;;;;21.89;69.04;94676.53;5019496;28;20434;-87
2022/07/24 04:28:47;;;;;;;18.73;4.13;;;;;;;21.93;68.63;94678.53;5019461;28;20033;-87
2022/07/24 04:31:15;;;;;;;11.57;4.13;;;;;;;22.12;66.28;94673.44;5035827;28;20033;-87
2022/07/24 04:33:41;;;;;;;13.70;4.70;;;;;;;22.35;64.41;94683.66;5035530;28;20037;-88
2022/07/24 04:36:06;;;;;;;11.80;4.22;;;;;;;22.46;66.53;94681.31;5019334;28;20030;-87
2022/07/24 04:38:33;;;;;;;13.50;4.40;;;;;;;22.35;66.06;94680.97;5018955;28;20439;-87
2022/07/24 04:40:59;;;;;;;15.25;4.97;;;;;;;22.66;63.44;94678.88;5035650;28;20029;-87
2022/07/24 04:43:24;;;;;;;8.65;4.35;;;;;;;22.76;66.03;94677.63;5023020;28;20120;-87
2022/07/24 04:45:50;;;;;;;10.32;4.13;;;;;;;22.55;65.25;94679.31;5039538;28;20021;-87
2022/07/24 04:48:15;;;;;;;14.68;4.32;;;;;;;22.72;64.59;94675.63;5040650;28;20035;-87
2022/07/24 04:50:41;;;;;;;13.88;5.07;;;;;;;22.55;67.63;94676.66;5023102;28;20525;-87
2022/07/24 04:53:06;;;;;;;13.57;5.22;;;;;;;22.49;67.75;94680.69;5039296;28;20443;-87
2022/07/24 04:55:32;;;;;;;11.60;4.35;;;;;;;22.56;69.31;94680.88;5039340;28;20030;-87
2022/07/24 04:57:57;;;;;;;12.15;4.25;;;;;;;22.51;70.49;94681.13;5039043;28;20036;-87
2022/07/24 05:00:22;;;;;;;12.30;4.18;;;;;;;22.56;71.35;94682.78;5039597;28;20051;-87
2022/07/24 05:02:48;;;;;;;8.88;4.22;;;;;;;22.85;71.72;94686.28;5039123;28;20112;-87
2022/07/24 05:05:13;;;;;;;14.02;4.55;;;;;;;23.05;73.23;94689.91;5039466;28;20496;-87
2022/07/24 05:07:39;;;;;;;13.57;4.47;;;;;;;22.97;70.50;94688.94;5039301;28;20030;-87
2022/07/24 05:10:05;;;;;;;13.30;4.40;;;;;;;22.98;71.40;94682.47;5039072;28;20029;-87
2022/07/24 05:12:31;;;;;;;9.63;4.38;;;;;;;23.29;68.27;94678.38;5022629;28;20083;-87
2022/07/24 05:14:56;;;;;;;8.85;4.47;;;;;;;23.24;69.49;94681.25;5022358;28;20029;-87
2022/07/24 05:17:22;;;;;;;12.13;4.68;;;;;;;22.83;75.68;94685.84;5038937;28;20048;-87
2022/07/24 05:19:47;;;;;;;14.98;4.47;;;;;;;22.77;87.52;94684.50;5039652;28;20075;-87
2022/07/24 05:22:13;;;;;;;16.17;5.13;;;;;;;22.83;81.23;94686.63;5039163;28;20038;-87
2022/07/24 05:24:38;;;;;;;8.75;4.35;;;;;;;22.93;80.72;94696.03;5038638;28;20029;-87
2022/07/24 05:27:04;;;;;;;11.60;4.20;;;;;;;23.36;77.81;94693.81;5022417;28;20037;-87
2022/07/24 05:29:29;;;;;;;15.48;4.53;;;;;;;23.56;74.76;94689.38;5038731;28;20119;-87
2022/07/24 05:31:55;;;;;;;14.63;4.38;;;;;;;23.73;74.59;94688.25;5038386;28;20108;-87
2022/07/24 05:34:22;;;;;;;9.30;4.63;;;;;;;23.70;75.00;94685.50;5038524;28;20029;-87
2022/07/24 05:36:48;;;;;;;12.07;4.60;;;;;;;24.03;74.07;94680.97;5022634;28;20025;-87
2022/07/24 05:39:13;;;;;;;14.15;4.97;;;;;;;23.64;78.25;94687.66;5022121;28;20089;-87
2022/07/24 05:41:38;;;;;;;12.88;4.07;;;;;;;24.01;69.86;94694.66;5038331;28;20052;-87
2022/07/24 05:44:04;;;;;;;15.57;4.72;;;;;;;23.98;64.18;94690.78;5038321;28;20339;-87
2022/07/24 05:46:30;;;;;;;9.02;3.80;;;;;;;24.27;67.79;94690.72;5022100;28;20091;-87
2022/07/24 05:48:55;;;;;;;14.05;4.50;;;;;;;24.35;67.91;94695.09;5038633;28;20056;-87
2022/07/24 05:51:21;;;;;;;9.40;4.00;;;;;;;24.50;73.67;94698.09;5038427;28;20029;-87
2022/07/24 05:53:49;;;;;;;17.65;4.65;;;;;;;24.51;70.19;94688.94;5038009;28;20358;-91
2022/07/24 05:56:14;;;;;;;8.55;4.00;;;;;;;24.65;69.09;94691.94;5042056;28;20029;-92
2022/07/24 05:58:40;;;;;;;11.38;4.22;;;;;;;24.85;68.29;94692.75;5023588;28;20124;-92
2022/07/24 06:01:05;;;;;;;14.07;4.45;;;;;;;24.63;66.12;94686.16;5027582;28;20025;-92
2022/07/24 06:03:31;;;;;;;9.98;4.70;;;;;;;24.88;63.83;94688.63;5023965;28;20025;-92
2022/07/24 06:05:56;;;;;;;9.98;4.15;;;;;;;25.04;66.30;94693.94;5021932;28;20026;-92
2022/07/24 06:08:28;;;;;;;11.40;4.80;;;;;;;24.72;68.36;94696.66;5021577;28;20022;-92
2022/07/24 06:10:53;;;;;;;11.18;4.22;;;;;;;24.64;74.56;94698.41;5021963;28;20017;-92
2022/07/24 06:13:18;;;;;;;11.70;4.75;;;;;;;25.06;68.22;94698.91;5021844;28;20021;-93
2022/07/24 06:15:44;;;;;;;10.75;3.90;;;;;;;25.22;67.14;94712.25;5038207;28;20108;-94
2022/07/24 06:18:09;;;;;;;10.93;3.90;;;;;;;25.18;64.58;94711.41;5021482;28;20025;-93
2022/07/24 06:20:35;;;;;;;10.57;4.38;;;;;;;25.40;63.78;94707.25;5021678;28;20390;-93
2022/07/24 06:23:21;;;;;;;10.30;4.20;;;;;;;25.31;65.78;94715.50;5022696;28;20025;-91
2022/07/24 06:25:46;;;;;;;11.00;4.00;;;;;;;25.41;66.22;94717.59;5019785;28;20462;-92
2022/07/24 06:28:11;;;;;;;15.93;4.63;;;;;;;25.67;63.37;94712.72;5010673;28;20041;-92
2022/07/24 06:30:37;;;;;;;18.77;4.80;;;;;;;25.65;62.97;94726.50;5017915;28;20033;-92
2022/07/24 06:33:05;;;;;;;16.75;4.70;;;;;;;25.80;62.39;94716.78;5017601;28;20029;-92
2022/07/24 06:35:33;;;;;;;10.82;4.00;;;;;;;25.90;60.74;94725.41;5001868;28;20049;-92
2022/07/24 06:38:09;;;;;;;15.77;4.60;;;;;;;26.08;57.38;94731.06;5019691;28;20076;-93
2022/07/24 06:40:36;;;;;;;11.30;4.40;;;;;;;25.89;60.06;94724.59;5002085;28;20120;-92
2022/07/24 06:43:02;;;;;;;14.82;4.70;;;;;;;26.24;57.87;94728.28;5018020;28;20076;-92
2022/07/24 06:45:27;;;;;;;12.55;4.60;;;;;;;26.00;58.06;94724.81;5001654;28;20022;-92
2022/07/24 06:48:13;;;;;;;15.43;4.65;;;;;;;26.47;55.44;94717.53;5018827;28;20447;-93
2022/07/24 06:50:39;;;;;;;20.80;5.05;;;;;;;26.38;55.30;94725.06;5020146;28;20034;-93
2022/07/24 06:53:04;;;;;;;10.90;4.43;;;;;;;26.40;56.94;94714.72;5017658;28;20033;-92
2022/07/24 06:55:30;;;;;;;8.02;4.10;;;;;;;26.46;62.98;94709.81;5017137;28;20030;-86
2022/07/24 06:57:55;;;;;;;7.93;4.20;;;;;;;26.82;64.15;94708.41;5018146;28;20030;-86
2022/07/24 07:00:23;;;;;;;13.88;4.85;;;;;;;26.69;66.44;94715.13;5017967;28;20033;-87
2022/07/24 07:02:51;;;;;;;14.70;4.63;;;;;;;26.64;59.05;94708.16;5016875;28;20025;-88
2022/07/24 07:05:19;;;;;;;10.20;4.28;;;;;;;26.76;60.97;94717.13;5015988;28;20098;-87
2022/07/24 07:07:54;;;;;;;12.07;4.40;;;;;;;27.13;62.69;94705.75;5017149;28;20056;-87
2022/07/24 07:10:21;;;;;;;12.80;4.15;;;;;;;27.12;55.89;94706.09;5018900;28;20029;-87
2022/07/24 07:12:46;;;;;;;11.07;4.80;;;;;;;27.08;55.34;94708.75;5016745;28;20427;-87
2022/07/24 07:15:13;;;;;;;13.65;4.40;;;;;;;27.28;56.45;94703.97;5017065;28;20037;-87
2022/07/24 07:17:42;;;;;;;14.38;4.47;;;;;;;27.44;54.48;94706.47;5016919;28;20018;-87
2022/07/24 07:20:09;;;;;;;13.27;4.32;;;;;;;27.59;57.09;94709.34;5016665;28;20026;-87
2022/07/24 07:22:35;;;;;;;9.88;4.57;;;;;;;27.22;58.08;94714.28;5016647;28;20454;-87
2022/07/24 07:25:01;;;;;;;12.90;4.65;;;;;;;27.44;57.86;94719.94;5016659;28;20025;-86
2022/07/24 07:27:27;;;;;;;8.57;4.63;;;;;;;27.45;58.47;94718.78;5000231;28;20028;-89
2022/07/24 07:29:52;;;;;;;13.77;4.50;;;;;;;27.58;60.62;94710.50;5017027;28;20022;-87
2022/07/24 07:32:18;;;;;;;14.73;4.88;;;;;;;27.49;59.44;94708.81;5016648;28;20072;-87
2022/07/24 07:34:50;;;;;;;9.45;4.80;;;;;;;27.61;60.85;94709.75;5016513;28;20033;-87
2022/07/24 07:37:16;;;;;;;12.20;4.88;;;;;;;27.66;58.96;94707.50;5016760;28;20045;-87
2022/07/24 07:39:41;;;;;;;11.00;4.60;;;;;;;27.96;59.33;94710.47;5016464;28;20105;-86
2022/07/24 07:42:07;;;;;;;10.75;5.28;;;;;;;27.39;59.55;94712.16;5016051;28;20033;-87
2022/07/24 07:44:32;;;;;;;12.57;4.78;;;;;;;27.67;60.15;94716.34;5017530;28;20030;-86
2022/07/24 07:46:58;;;;;;;12.23;5.00;;;;;;;27.63;59.97;94710.16;5017307;28;20328;-86
2022/07/24 07:49:23;;;;;;;10.05;4.80;;;;;;;27.88;57.97;94712.31;4999940;28;20026;-87
2022/07/24 07:51:51;;;;;;;10.65;5.68;;;;;;;27.62;58.64;94714.78;5016296;28;20025;-86
2022/07/24 07:54:17;;;;;;;9.70;5.18;;;;;;;27.97;59.77;94712.75;5015951;28;20109;-87
2022/07/24 07:56:42;;;;;;;13.73;5.40;;;;;;;28.01;57.86;94710.09;5016129;28;20079;-88
2022/07/24 07:59:07;;;;;;;11.20;5.40;;;;;;;27.99;59.26;94705.13;5017350;28;20025;-86
2022/07/24 08:01:33;;;;;;;12.75;5.25;;;;;;;27.91;58.58;94708.88;4999758;28;20025;-88
2022/07/24 08:03:59;;;;;;;15.13;5.35;;;;;;;28.19;58.80;94708.38;5003116;28;20033;-87
2022/07/24 08:06:24;;;;;;;18.80;5.80;;;;;;;28.28;59.13;94702.69;5036093;28;20033;-87
2022/07/24 08:09:20;;;;;;;;;;;;;;;;;;;;;
2022/07/24 08:11:58;;;;;;;;;;;;;;;;;;;;;
2022/07/24 08:15:33;;;;;;;9.52;5.35;;;;;;;28.71;59.78;94707.56;5016522;28;20029;-87
2022/07/24 08:18:04;;;;;;;9.10;5.68;;;;;;;28.60;60.15;94710.19;5016171;28;20034;-89
2022/07/24 08:20:32;;;;;;;10.38;5.18;;;;;;;28.87;59.49;94707.31;5015982;28;20038;-87
2022/07/24 08:22:58;;;;;;;9.63;5.18;;;;;;;28.92;61.49;94709.63;4999310;28;20053;-87
2022/07/24 08:25:26;;;;;;;16.42;5.93;;;;;;;28.95;61.05;94708.09;4999561;28;20069;-86
2022/07/24 08:27:51;;;;;;;18.30;5.20;;;;;;;28.85;60.99;94715.00;5015538;28;20040;-86
2022/07/24 08:30:27;;;;;;;;;;;;;;;;;;;;;
2022/07/24 08:32:53;;;;;;;11.48;5.32;;;;;;;29.60;60.13;94713.00;5015374;28;20036;-87
2022/07/24 08:35:28;;;;;;;;;;;;;;;;;;;;;
2022/07/24 08:38:15;;;;;;;15.68;5.63;;;;;;;28.93;58.16;94713.88;5015591;28;20026;-87
2022/07/24 08:41:24;;;;;;;;;;;;;;;;;;;;;
2022/07/24 08:44:03;;;;;;;15.18;5.55;;;;;;;29.35;57.18;94716.34;5010598;28;20033;-87
2022/07/24 08:46:35;;;;;;;8.88;5.07;;;;;;;29.43;58.21;94711.78;5015982;28;20040;-88
2022/07/24 08:49:43;;;;;;;19.65;7.22;;;;;;;29.72;59.54;94718.03;5015761;28;20034;-90
2022/07/24 08:52:15;;;;;;;10.63;5.57;;;;;;;29.18;57.60;94713.22;5012606;28;20037;-89
2022/07/24 08:54:52;;;;;;;30.53;18.23;;;;;;;29.30;57.75;94708.63;5010847;28;20033;-87
2022/07/24 08:57:31;;;;;;;;;;;;;;;;;;;;;
2022/07/24 08:59:57;;;;;;;9.23;5.90;;;;;;;29.47;58.23;94718.75;5015324;28;20032;-88
2022/07/24 09:02:27;;;;;;;8.82;5.47;;;;;;;29.75;58.28;94716.47;5015694;28;20510;-88
2022/07/24 09:05:03;;;;;;;12.27;6.10;;;;;;;29.96;57.00;94718.44;4999669;28;20057;-89
2022/07/24 09:07:51;;;;;;;12.20;5.55;;;;;;;30.08;56.40;94716.53;5015516;28;20120;-90
2022/07/24 09:10:26;;;;;;;13.25;6.20;;;;;;;29.71;56.11;94715.72;5015699;28;20030;-88
2022/07/24 09:13:02;;;;;;;;;;;;;;;;;;;;;
2022/07/24 09:15:37;;;;;;;;;;;;;;;;;;;;;
2022/07/24 09:22:27;;;;;;;;;;;;;;;;;;;;;
2022/07/24 09:25:22;;;;;;;;;;;;;;;;;;;;;
2022/07/24 09:27:53;;;;;;;9.93;5.43;;;;;;;29.91;54.38;94716.91;5008559;28;20048;-89
2022/07/24 09:31:01;;;;;;;13.02;5.30;;;;;;;29.83;55.29;94722.66;5022387;28;20030;-89
2022/07/24 09:33:35;;;;;;;15.32;5.93;;;;;;;30.02;55.86;94713.44;4968128;28;20053;-90
2022/07/24 09:36:16;;;;;;;10.23;5.53;;;;;;;30.17;56.33;94722.34;5038305;28;20347;-87
2022/07/24 09:42:53;;;;;;;;;;;;;;;;;;;;;
2022/07/24 09:45:54;;;;;;;10.77;5.63;;;;;;;30.25;54.60;94723.13;5010400;28;20042;-87
2022/07/24 09:49:00;;;;;;;13.57;5.85;;;;;;;30.84;56.42;94728.06;5018943;28;20036;-89
2022/07/24 09:52:11;;;;;;;12.63;5.85;;;;;;;30.81;52.77;94720.00;5016728;28;20042;-89
2022/07/24 09:55:24;;;;;;;12.73;5.55;;;;;;;30.32;55.41;94718.47;5008298;28;20045;-89
2022/07/24 09:57:56;;;;;;;10.45;5.68;;;;;;;30.45;54.48;94731.59;5017938;28;20445;-89
2022/07/24 10:00:32;;;;;;;9.40;5.85;;;;;;;30.40;54.36;94729.28;5018358;28;20087;-88
2022/07/24 10:06:26;;;;;;;12.32;5.30;;;;;;;30.35;54.56;94719.66;5018155;28;20033;-90
2022/07/24 10:09:01;;;;;;;14.85;6.00;;;;;;;30.65;54.24;94712.28;5016782;28;20096;-90
2022/07/24 10:11:27;;;;;;;10.63;5.90;;;;;;;30.95;53.71;94714.53;5021142;28;20037;-87
2022/07/24 10:13:55;;;;;;;13.77;5.95;;;;;;;30.86;53.23;94720.38;5016697;28;20029;-89
2022/07/24 10:16:31;;;;;;;14.07;6.03;;;;;;;30.32;54.38;94723.88;5001871;28;20057;-89
2022/07/24 10:19:03;;;;;;;10.00;5.25;;;;;;;30.59;54.67;94714.59;5018010;28;20116;-90
2022/07/24 10:21:30;;;;;;;20.98;6.15;;;;;;;30.89;54.33;94713.38;5017583;28;20124;-87
2022/07/24 10:24:35;;;;;;;13.90;5.60;;;;;;;31.31;53.46;94702.84;5018708;28;20033;-89
2022/07/24 10:27:32;;;;;;;;;;;;;;;;;;;;;
2022/07/24 10:30:08;;;;;;;10.38;5.88;;;;;;;31.22;51.80;94708.69;5018420;28;20018;-88
2022/07/24 10:32:35;;;;;;;9.90;5.80;;;;;;;31.41;51.39;94704.72;5017459;28;20038;-88
2022/07/24 10:35:21;;;;;;;11.68;5.25;;;;;;;31.36;53.22;94709.78;5017548;28;20116;-88
2022/07/24 10:38:33;;;;;;;8.98;5.47;;;;;;;30.86;51.86;94712.25;5017534;28;20461;-90
2022/07/24 10:41:04;;;;;;;10.02;5.50;;;;;;;31.37;51.87;94703.97;4980321;28;20069;-87
2022/07/24 10:43:32;;;;;;;11.80;6.57;;;;;;;31.42;51.05;94700.06;5013196;28;20077;-88
2022/07/24 10:45:57;;;;;;;13.23;5.82;;;;;;;31.56;51.13;94707.34;5017322;28;20030;-89
2022/07/24 10:48:26;;;;;;;15.98;5.65;;;;;;;31.27;52.46;94692.03;5018281;28;20041;-89
2022/07/24 10:51:00;;;;;;;10.18;6.07;;;;;;;31.67;51.62;94694.50;5028742;28;20036;-89
2022/07/24 10:53:35;;;;;;;12.93;5.30;;;;;;;31.56;51.53;94696.50;5036804;28;20092;-89
2022/07/24 10:56:21;;;;;;;11.80;5.68;;;;;;;31.82;50.36;94683.63;5036973;28;20030;-91
2022/07/24 10:59:00;;;;;;;14.98;6.10;;;;;;;32.16;50.70;94697.28;5037856;28;20347;-88
2022/07/24 11:01:36;;;;;;;17.10;5.80;;;;;;;31.58;50.91;94686.84;5036835;28;20040;-88
2022/07/24 11:04:23;;;;;;;19.63;6.07;;;;;;;31.83;50.03;94693.28;5036803;28;20029;-90
2022/07/24 11:06:50;;;;;;;18.95;6.00;;;;;;;32.30;49.17;94688.28;5036606;28;20032;-88
2022/07/24 11:09:18;;;;;;;16.77;6.43;;;;;;;31.96;49.29;94675.38;5037683;28;20056;-90
2022/07/24 11:11:52;;;;;;;15.38;5.55;;;;;;;32.15;49.66;94682.19;5036446;28;20025;-87
2022/07/24 11:14:23;;;;;;;10.80;6.03;;;;;;;32.06;50.03;94679.16;5037180;28;20030;-88
2022/07/24 11:16:52;;;;;;;10.40;5.60;;;;;;;31.95;50.07;94678.50;5026626;28;20089;-88
2022/07/24 11:19:17;;;;;;;11.95;5.80;;;;;;;32.38;49.42;94678.16;5017480;28;20106;-88
2022/07/24 11:21:46;;;;;;;14.23;5.90;;;;;;;32.24;49.65;94684.44;5017460;28;20113;-88
2022/07/24 11:26:58;;;;;;;11.30;5.95;;;;;;;31.25;52.26;94677.34;5017701;28;20068;-88
2022/07/24 11:29:34;;;;;;;11.02;5.82;;;;;;;31.50;50.72;94671.81;5017436;28;20383;-88
2022/07/24 11:32:04;;;;;;;11.27;5.75;;;;;;;31.78;50.57;94662.00;5016705;28;20054;-90
2022/07/24 11:34:31;;;;;;;14.73;5.32;;;;;;;32.07;50.80;94661.78;5017469;28;20080;-87
2022/07/24 11:36:59;;;;;;;13.38;8.48;;;;;;;32.28;50.96;94660.03;5016810;28;20327;-92
2022/07/24 11:39:43;;;;;;;;;;;;;;;;;;;;;
2022/07/24 11:42:11;;;;;;;18.48;6.50;;;;;;;31.65;50.44;94658.19;5016270;28;20470;-87
2022/07/24 11:44:39;;;;;;;12.73;6.13;;;;;;;32.40;50.07;94658.78;5016032;28;20132;-86
2022/07/24 11:50:40;;;;;;;12.90;6.18;;;;;;;31.90;50.44;94649.91;5009998;28;20052;-87
2022/07/24 11:59:05;;;;;;;17.92;6.22;;;;;;;32.72;50.61;94646.84;4982199;28;20030;-86
2022/07/24 12:01:44;;;;;;;;;;;;;;;;;;;;;
2022/07/24 12:04:48;;;;;;;;;;;;;;;;;;;;;
2022/07/24 12:07:36;;;;;;;;;;;;;;;;;;;;;
2022/07/24 12:10:16;;;;;;;;;;;;;;;;;;;;;
2022/07/24 12:12:42;;;;;;;12.30;6.03;;;;;;;32.83;51.98;94636.63;5015970;28;20431;-90
2022/07/24 12:15:28;;;;;;;;;;;;;;;;;;;;;
2022/07/24 12:18:47;;;;;;;;;;;;;;;;;;;;;
2022/07/24 12:21:23;;;;;;;9.80;5.97;;;;;;;33.00;49.95;94631.44;5015736;28;20034;-91
2022/07/24 12:30:41;;;;;;;10.50;5.63;;;;;;;32.95;50.73;94629.16;5012271;28;20336;-92
2022/07/24 12:33:33;;;;;;;19.02;6.13;;;;;;;32.97;49.17;94634.94;5008014;28;20033;-91
2022/07/24 12:36:11;;;;;;;13.30;7.30;;;;;;;32.53;51.16;94632.69;5016074;28;20037;-91